createdAt,value
2022-11-17T00:00:24.188Z,47.54
2022-11-17T00:03:27.030Z,47.59
2022-11-17T00:06:29.926Z,47.63
2022-11-17T00:09:34.157Z,47.74
2022-11-17T00:12:54.551Z,47.79
2022-11-17T00:15:57.421Z,47.74
2022-11-17T00:19:17.872Z,47.82
2022-11-17T00:22:21.134Z,47.69
2022-11-17T00:25:25.372Z,47.65
2022-11-17T00:28:28.195Z,47.46
2022-11-17T00:31:49.029Z,47.05
2022-11-17T00:34:51.848Z,47.41
2022-11-17T00:38:12.340Z,47.44
2022-11-17T00:41:16.561Z,47.86
2022-11-17T00:44:19.365Z,48.03
2022-11-17T00:47:22.225Z,48.14
2022-11-17T00:50:25.313Z,48.45
2022-11-17T00:53:28.157Z,48.08
2022-11-17T00:56:32.352Z,48.37
2022-11-17T00:59:35.198Z,48.22
2022-11-17T01:02:37.979Z,48.32
2022-11-17T01:05:40.750Z,48.80
2022-11-17T01:08:43.953Z,48.31
2022-11-17T01:11:48.675Z,48.05
2022-11-17T01:14:51.497Z,48.63
2022-11-17T01:17:54.287Z,48.38
2022-11-17T01:20:57.064Z,48.51
2022-11-17T01:24:00.506Z,48.40
2022-11-17T01:27:04.786Z,48.34
2022-11-17T01:30:08.127Z,48.51
2022-11-17T01:33:10.982Z,48.19
2022-11-17T01:36:14.574Z,48.14
2022-11-17T01:39:17.381Z,48.25
2022-11-17T01:42:22.566Z,48.21
2022-11-17T01:45:26.944Z,48.22
2022-11-17T01:48:29.759Z,48.22
2022-11-17T01:51:33.780Z,48.15
2022-11-17T01:54:38.451Z,48.35
2022-11-17T01:57:44.953Z,48.24
2022-11-17T02:00:47.821Z,48.30
2022-11-17T02:03:51.710Z,48.33
2022-11-17T02:06:57.295Z,47.55
2022-11-17T02:10:00.756Z,47.46
2022-11-17T02:13:05.555Z,47.38
2022-11-17T02:16:12.099Z,47.07
2022-11-17T02:19:17.322Z,46.99
2022-11-17T02:22:33.665Z,46.76
2022-11-17T02:25:48.872Z,46.62
2022-11-17T02:28:57.746Z,46.55
2022-11-17T02:32:05.823Z,46.87
2022-11-17T02:35:11.970Z,46.87
2022-11-17T02:38:19.642Z,46.70
2022-11-17T02:41:26.460Z,46.52
2022-11-17T02:44:33.542Z,46.49
2022-11-17T02:47:37.760Z,46.37
2022-11-17T02:50:43.025Z,46.47
2022-11-17T02:53:46.105Z,46.41
2022-11-17T02:56:48.829Z,46.47
2022-11-17T02:59:52.955Z,46.47
2022-11-17T03:03:07.682Z,46.34
2022-11-17T03:06:16.872Z,46.22
2022-11-17T03:09:24.512Z,46.33
2022-11-17T03:12:32.837Z,46.80
2022-11-17T03:15:41.778Z,46.64
2022-11-17T03:18:48.849Z,46.68
2022-11-17T03:21:55.320Z,46.54
2022-11-17T03:25:00.285Z,46.67
2022-11-17T03:28:05.714Z,46.55
2022-11-17T03:31:11.343Z,46.72
2022-11-17T03:34:16.261Z,46.69
2022-11-17T03:37:22.225Z,46.87
2022-11-17T03:40:26.663Z,46.91
2022-11-17T03:43:30.294Z,47.13
2022-11-17T03:46:35.249Z,47.21
2022-11-17T03:49:41.885Z,47.38
2022-11-17T03:52:45.108Z,47.27
2022-11-17T03:55:50.832Z,47.53
2022-11-17T03:58:56.408Z,47.59
2022-11-17T04:02:00.573Z,47.62
2022-11-17T04:05:09.386Z,47.67
2022-11-17T04:08:12.182Z,47.46
2022-11-17T04:11:41.020Z,47.49
2022-11-17T04:15:01.494Z,47.39
2022-11-17T04:18:06.066Z,47.37
2022-11-17T04:21:08.808Z,47.38
2022-11-17T04:24:11.606Z,47.51
2022-11-17T04:27:31.833Z,47.48
2022-11-17T04:30:34.595Z,47.50
2022-11-17T04:33:39.615Z,47.59
2022-11-17T04:36:44.494Z,47.43
2022-11-17T04:39:47.261Z,47.48
2022-11-17T04:42:49.006Z,47.49
2022-11-17T04:45:51.789Z,47.48
2022-11-17T04:48:56.398Z,47.46
2022-11-17T04:51:59.222Z,47.78
2022-11-17T04:55:02.003Z,47.53
2022-11-17T04:58:04.780Z,47.59
2022-11-17T05:01:13.691Z,47.67
2022-11-17T05:04:39.661Z,47.56
2022-11-17T05:07:42.445Z,47.64
2022-11-17T05:11:02.973Z,47.60
2022-11-17T05:14:05.834Z,47.75
2022-11-17T05:17:11.570Z,47.65
2022-11-17T05:20:18.768Z,47.81
2022-11-17T05:23:39.168Z,47.72
2022-11-17T05:26:42.926Z,47.69
2022-11-17T05:29:45.690Z,47.77
2022-11-17T05:32:48.460Z,47.89
2022-11-17T05:35:52.647Z,47.85
2022-11-17T05:38:55.685Z,47.88
2022-11-17T05:41:58.533Z,47.84
2022-11-17T05:45:01.341Z,47.73
2022-11-17T05:48:04.187Z,47.84
2022-11-17T05:51:08.462Z,47.89
2022-11-17T05:54:11.362Z,47.83
2022-11-17T05:57:17.363Z,47.91
2022-11-17T06:00:20.257Z,47.79
2022-11-17T06:03:25.366Z,47.72
2022-11-17T06:06:29.646Z,47.93
2022-11-17T06:09:33.911Z,47.87
2022-11-17T06:12:36.701Z,47.94
2022-11-17T06:15:39.842Z,47.82
2022-11-17T06:18:44.858Z,47.85
2022-11-17T06:22:10.972Z,47.83
2022-11-17T06:25:12.148Z,47.89
2022-11-17T06:28:16.089Z,47.90
2022-11-17T06:31:19.277Z,47.81
2022-11-17T06:34:22.120Z,47.78
2022-11-17T06:37:26.579Z,47.91
2022-11-17T06:40:29.842Z,47.94
2022-11-17T06:43:32.874Z,48.00
2022-11-17T06:46:39.037Z,48.03
2022-11-17T06:49:41.867Z,48.10
2022-11-17T06:52:46.062Z,48.05
2022-11-17T06:55:50.617Z,47.89
2022-11-17T06:58:55.032Z,48.02
2022-11-17T07:01:57.826Z,48.09
2022-11-17T07:05:00.777Z,47.95
2022-11-17T07:08:08.091Z,47.97
2022-11-17T07:11:11.976Z,48.05
2022-11-17T07:14:14.803Z,47.97
2022-11-17T07:17:17.630Z,47.97
2022-11-17T07:20:20.424Z,47.92
2022-11-17T07:23:24.561Z,47.91
2022-11-17T07:26:27.462Z,47.89
2022-11-17T07:29:30.896Z,47.89
2022-11-17T07:32:34.273Z,47.84
2022-11-17T07:35:37.391Z,47.96
2022-11-17T07:38:41.655Z,47.96
2022-11-17T07:41:45.103Z,47.62
2022-11-17T07:44:47.916Z,48.00
2022-11-17T07:47:57.441Z,48.08
2022-11-17T07:51:00.261Z,47.99
2022-11-17T07:54:04.650Z,48.10
2022-11-17T07:57:07.561Z,48.21
2022-11-17T08:00:11.124Z,48.13
2022-11-17T08:03:14.021Z,48.15
2022-11-17T08:06:17.011Z,47.99
2022-11-17T08:09:21.244Z,48.26
2022-11-17T08:12:24.115Z,48.15
2022-11-17T08:15:26.937Z,48.11
2022-11-17T08:18:30.388Z,48.12
2022-11-17T08:21:33.381Z,48.19
2022-11-17T08:24:37.499Z,47.70
2022-11-17T08:27:40.272Z,47.27
2022-11-17T08:30:44.433Z,47.82
2022-11-17T08:33:47.250Z,48.42
2022-11-17T08:36:50.043Z,47.54
2022-11-17T08:39:54.159Z,47.43
2022-11-17T08:43:00.979Z,46.98
2022-11-17T08:46:04.666Z,46.99
2022-11-17T08:49:07.426Z,47.03
2022-11-17T08:52:10.227Z,46.67
2022-11-17T08:55:14.403Z,46.51
2022-11-17T08:58:17.534Z,46.66
2022-11-17T09:01:20.557Z,46.51
2022-11-17T09:04:23.402Z,46.60
2022-11-17T09:07:28.370Z,46.31
2022-11-17T09:10:37.605Z,46.57
2022-11-17T09:13:40.398Z,46.67
2022-11-17T09:16:43.126Z,46.49
2022-11-17T09:19:45.950Z,46.71
2022-11-17T09:22:48.719Z,46.51
2022-11-17T09:25:52.900Z,46.41
2022-11-17T09:28:55.777Z,46.58
2022-11-17T09:31:58.776Z,46.57
2022-11-17T09:35:01.680Z,46.65
2022-11-17T09:38:04.541Z,46.49
2022-11-17T09:41:19.232Z,46.60
2022-11-17T09:44:33.145Z,46.61
2022-11-17T09:47:41.466Z,46.51
2022-11-17T09:50:45.394Z,46.48
2022-11-17T09:53:53.515Z,46.51
2022-11-17T09:56:59.139Z,46.50
2022-11-17T10:00:07.390Z,46.55
2022-11-17T10:03:15.332Z,46.71
2022-11-17T10:06:21.056Z,46.64
2022-11-17T10:09:30.493Z,46.66
2022-11-17T10:12:39.070Z,46.63
2022-11-17T10:15:44.788Z,46.67
2022-11-17T10:18:47.606Z,46.77
2022-11-17T10:21:51.625Z,46.75
2022-11-17T10:24:55.604Z,46.77
2022-11-17T10:27:59.756Z,46.55
2022-11-17T10:31:03.671Z,46.70
2022-11-17T10:34:06.447Z,46.22
2022-11-17T10:37:24.192Z,46.56
2022-11-17T10:40:28.235Z,45.99
2022-11-17T10:43:34.995Z,45.89
2022-11-17T10:46:55.431Z,45.69
2022-11-17T10:50:13.721Z,46.05
2022-11-17T10:53:23.998Z,45.88
2022-11-17T10:56:26.838Z,45.99
2022-11-17T10:59:32.826Z,45.92
2022-11-17T11:02:36.729Z,45.85
2022-11-17T11:05:39.694Z,45.82
2022-11-17T11:08:52.514Z,46.01
2022-11-17T11:11:58.015Z,45.85
2022-11-17T11:15:03.494Z,46.17
2022-11-17T11:18:12.667Z,45.86
2022-11-17T11:21:18.534Z,46.26
2022-11-17T11:24:24.096Z,45.89
2022-11-17T11:27:36.249Z,45.89
2022-11-17T11:30:43.745Z,45.95
2022-11-17T11:33:51.353Z,45.98
2022-11-17T11:36:56.634Z,45.81
2022-11-17T11:40:04.821Z,45.94
2022-11-17T11:43:24.059Z,45.96
2022-11-17T11:46:36.514Z,46.09
2022-11-17T11:49:41.492Z,45.86
2022-11-17T11:52:46.990Z,46.04
2022-11-17T11:55:50.856Z,46.19
2022-11-17T11:58:58.424Z,46.17
2022-11-17T12:02:15.701Z,46.65
2022-11-17T12:05:22.811Z,46.80
2022-11-17T12:08:28.670Z,46.76
2022-11-17T12:11:50.207Z,46.21
2022-11-17T12:15:07.780Z,46.84
2022-11-17T12:18:30.242Z,46.71
2022-11-17T12:21:33.089Z,47.00
2022-11-17T14:48:47.725Z,48.21
2022-11-17T14:51:50.708Z,48.18
2022-11-17T14:54:53.386Z,48.28
2022-11-17T14:57:57.071Z,48.24
2022-11-17T15:00:59.765Z,48.25
2022-11-17T15:04:27.269Z,48.21
2022-11-17T15:07:27.146Z,48.04
2022-11-17T15:10:29.936Z,47.79
2022-11-17T15:13:32.736Z,47.70
2022-11-17T15:16:35.502Z,47.60
2022-11-17T15:19:39.573Z,47.47
2022-11-17T15:22:42.441Z,47.53
2022-11-17T15:25:45.133Z,46.49
2022-11-17T15:28:47.892Z,46.82
2022-11-17T15:31:50.631Z,46.96
2022-11-17T15:34:54.690Z,46.41
2022-11-17T15:37:57.374Z,46.17
2022-11-17T15:41:00.170Z,46.03
2022-11-17T15:44:02.850Z,46.10
2022-11-17T15:47:06.140Z,45.47
2022-11-17T15:50:10.875Z,45.84
2022-11-17T15:53:13.570Z,45.63
2022-11-17T15:56:18.806Z,45.50
2022-11-17T15:59:21.660Z,45.82
2022-11-17T16:02:24.356Z,45.81
2022-11-17T16:05:28.462Z,45.66
2022-11-17T16:08:31.385Z,45.72
2022-11-17T16:11:34.207Z,45.75
2022-11-17T16:14:36.957Z,45.78
2022-11-17T16:17:39.645Z,45.92
2022-11-17T16:20:44.206Z,45.75
2022-11-17T16:23:47.944Z,45.83
2022-11-17T16:26:51.354Z,45.80
2022-11-17T16:29:56.086Z,45.70
2022-11-17T16:32:58.813Z,45.54
2022-11-17T16:36:06.653Z,45.37
2022-11-17T16:39:10.189Z,45.54
2022-11-17T16:42:12.948Z,45.70
2022-11-17T16:45:15.728Z,45.89
2022-11-17T16:48:18.393Z,45.98
2022-11-17T16:51:22.822Z,46.07
2022-11-17T16:54:25.508Z,45.97
2022-11-17T16:57:28.230Z,45.91
2022-11-17T17:00:31.146Z,46.11
2022-11-17T17:03:34.950Z,46.20
2022-11-17T17:06:40.230Z,46.17
2022-11-17T17:09:42.940Z,46.30
2022-11-17T17:12:45.607Z,46.24
2022-11-17T17:15:50.997Z,46.34
2022-11-17T17:18:56.304Z,46.52
2022-11-17T17:22:00.428Z,46.37
2022-11-17T17:25:03.730Z,46.42
2022-11-17T17:28:06.354Z,46.62
2022-11-17T17:31:10.163Z,46.55
2022-11-17T17:34:13.592Z,46.59
2022-11-17T17:37:18.190Z,46.86
2022-11-17T17:40:20.970Z,46.62
2022-11-17T17:43:23.755Z,46.65
2022-11-17T17:46:26.806Z,46.72
2022-11-17T17:49:29.480Z,46.94
2022-11-17T17:52:33.551Z,46.86
2022-11-17T17:55:36.288Z,46.85
2022-11-17T17:58:41.298Z,46.95
2022-11-17T18:01:46.212Z,46.79
2022-11-17T18:04:49.258Z,46.92
2022-11-17T18:07:53.335Z,46.91
2022-11-17T18:11:00.289Z,46.94
2022-11-17T18:14:03.478Z,46.84
2022-11-17T18:17:06.147Z,46.94
2022-11-17T18:20:10.145Z,46.98
2022-11-17T18:23:14.157Z,47.06
2022-11-17T18:26:19.628Z,47.08
2022-11-17T18:29:22.408Z,46.85
2022-11-17T18:32:25.107Z,47.09
2022-11-17T18:35:27.756Z,47.10
2022-11-17T18:38:31.788Z,46.99
2022-11-17T18:41:34.592Z,47.06
2022-11-17T18:44:37.638Z,47.13
2022-11-17T18:47:40.550Z,47.02
2022-11-17T18:51:12.293Z,47.06
2022-11-17T18:54:11.655Z,47.31
2022-11-17T18:57:14.268Z,46.90
2022-11-17T19:00:17.766Z,47.13
2022-11-17T19:03:21.394Z,47.32
2022-11-17T19:06:24.871Z,47.34
2022-11-17T19:09:28.968Z,47.43
2022-11-17T19:12:31.623Z,47.58
2022-11-17T19:15:35.314Z,47.09
2022-11-17T19:18:38.445Z,46.81
2022-11-17T19:21:41.168Z,46.69
2022-11-17T19:24:45.529Z,46.56
2022-11-17T19:27:48.213Z,46.29
2022-11-17T19:30:50.926Z,46.49
2022-11-17T19:33:54.376Z,46.05
2022-11-17T19:36:58.412Z,46.08
2022-11-17T19:40:02.468Z,45.79
2022-11-17T19:43:05.117Z,45.21
2022-11-17T19:46:08.789Z,45.47
2022-11-17T19:49:13.065Z,45.55
2022-11-17T19:52:15.764Z,46.98
2022-11-17T19:55:19.760Z,47.51
2022-11-17T19:58:22.452Z,47.54
2022-11-17T20:01:25.905Z,47.28
2022-11-17T20:04:28.696Z,47.06
2022-11-17T20:07:31.470Z,47.31
2022-11-17T20:10:35.649Z,46.38
2022-11-17T20:13:38.711Z,46.59
2022-11-17T20:16:41.427Z,45.34
2022-11-17T20:19:44.422Z,46.68
2022-11-17T20:22:47.097Z,46.18
2022-11-17T20:25:51.136Z,46.45
2022-11-17T20:28:54.348Z,46.74
2022-11-17T20:31:57.077Z,46.24
2022-11-17T20:35:00.070Z,46.54
2022-11-17T20:38:03.300Z,46.70
2022-11-17T20:41:07.771Z,46.57
2022-11-17T20:44:23.839Z,46.65
2022-11-17T20:47:27.661Z,46.34
2022-11-17T20:50:31.980Z,47.13
2022-11-17T20:53:34.944Z,46.85
2022-11-17T20:56:38.974Z,46.78
2022-11-17T20:59:41.610Z,46.99
2022-11-17T21:02:44.300Z,46.72
2022-11-17T21:05:58.436Z,46.74
2022-11-17T21:09:01.992Z,46.92
2022-11-17T21:12:06.556Z,46.74
2022-11-17T21:15:09.655Z,46.54
2022-11-17T21:18:27.691Z,46.60
2022-11-17T21:21:30.469Z,46.64
2022-11-17T21:24:33.173Z,46.60
2022-11-17T21:27:37.272Z,46.65
2022-11-17T21:30:40.010Z,46.71
2022-11-17T21:33:43.319Z,47.02
2022-11-17T21:36:46.301Z,46.76
2022-11-17T21:39:48.989Z,46.81
2022-11-17T21:42:53.031Z,46.77
2022-11-17T21:45:55.671Z,46.65
2022-11-17T21:48:59.121Z,46.68
2022-11-17T21:52:01.883Z,46.29
2022-11-17T21:55:04.857Z,46.36
2022-11-17T21:58:08.966Z,45.84
2022-11-17T22:01:13.727Z,45.88
2022-11-17T22:04:16.471Z,45.79
2022-11-17T22:07:19.233Z,46.04
2022-11-17T22:10:21.996Z,45.76
2022-11-17T22:13:26.000Z,45.91
2022-11-17T22:16:28.664Z,45.95
2022-11-17T22:19:31.324Z,45.89
2022-11-17T22:22:34.033Z,45.47
2022-11-17T22:25:45.227Z,45.30
2022-11-17T22:28:53.145Z,45.03
2022-11-17T22:31:55.829Z,44.75
2022-11-17T22:35:01.403Z,45.07
2022-11-17T22:38:04.226Z,44.96
2022-11-17T22:41:07.719Z,45.10
2022-11-17T22:44:13.496Z,45.17
2022-11-17T22:47:16.253Z,45.31
2022-11-17T22:50:19.105Z,45.67
2022-11-17T22:53:21.751Z,45.87
2022-11-17T22:56:24.481Z,46.04
2022-11-17T22:59:29.189Z,46.28
2022-11-17T23:02:31.932Z,46.72
2022-11-17T23:05:34.668Z,46.32
2022-11-17T23:08:37.343Z,46.67
2022-11-17T23:11:40.072Z,46.48
2022-11-17T23:14:44.230Z,46.70
2022-11-17T23:17:47.979Z,46.65
2022-11-17T23:20:50.720Z,46.17
2022-11-17T23:23:53.453Z,46.28
2022-11-17T23:26:56.109Z,46.08
2022-11-17T23:30:00.164Z,45.92
2022-11-17T23:33:02.861Z,45.70
2022-11-17T23:36:06.604Z,46.05
2022-11-17T23:39:09.352Z,45.63
2022-11-17T23:42:12.028Z,46.00
2022-11-17T23:45:16.113Z,45.88
2022-11-17T23:48:18.840Z,45.42
2022-11-17T23:51:22.198Z,44.79
2022-11-17T23:54:24.883Z,45.12
2022-11-17T23:57:27.541Z,45.69
